Terminal Aerodrome Forecast
Issued by NWS

Home | Current Version | Previous Version | Text Only | Print | Product List | Glossary On
Versions: 1 2 3 4 5 6 7 8 9 10 11 12 13 14 15 16 17 18 19 20 21 22 23 24 25 26 27 28 29
000
FTUS44 KHGX 211226 AAA
TAFLBX
TAF AMD
KLBX 211226Z 2112/2212 00000KT P6SM SKC
     FM211300 13004KT P6SM VCSH SCT025
     FM211800 14009KT P6SM VCTS SCT035CB SCT250
      TEMPO 2118/2120 TSRA BKN030CB
     FM212200 14004KT P6SM FEW030 FEW250=

USA.gov is the U.S. government's official web portal to all federal, state and local government web resources and services.